Time;durP1;ratioP1;P1;durP2;ratioP2;P2;SDS_P1;SDS_P2;PMS_P1;PMS_P2;Temp;Humidity;BMP_temperature;BMP_pressure;BME280_temperature;BME280_humidity;BME280_pressure;Samples;Min_cycle;Max_cycle;Signal;HPM_P1;HPM_P2
2022/12/03 00:01:42;;;;;;;46.53;24.90;;;1.70;96.70;;;1.18;88.27;98171.88;5014770;28;20443;-69
2022/12/03 00:04:09;;;;;;;44.87;25.10;;;1.60;96.50;;;1.32;88.34;98174.00;5025117;28;20955;-74
2022/12/03 00:06:36;;;;;;;47.20;26.80;;;1.60;98.10;;;1.19;88.10;98163.72;5045631;28;20981;-69
2022/12/03 00:09:04;;;;;;;45.57;25.03;;;1.60;96.80;;;1.33;87.26;98175.69;5030248;28;20471;-71
2022/12/03 00:11:32;;;;;;;41.57;23.40;;;1.70;96.20;;;1.10;87.66;98177.94;5029432;28;20466;-70
2022/12/03 00:14:00;;;;;;;38.90;22.73;;;1.60;94.90;;;1.09;87.54;98169.13;5028288;28;20465;-69
2022/12/03 00:16:28;;;;;;;43.10;25.90;;;1.60;95.40;;;1.06;87.29;98169.41;5022623;28;20875;-69
2022/12/03 00:18:55;;;;;;;44.07;26.10;;;1.60;95.20;;;1.04;87.68;98158.09;5029864;28;20454;-71
2022/12/03 00:21:22;;;;;;;42.97;24.27;;;1.60;95.80;;;1.28;87.11;98167.28;5031303;28;20453;-70
2022/12/03 00:23:49;;;;;;;47.70;25.37;;;1.60;96.00;;;1.26;87.10;98171.94;5031415;28;20770;-69
2022/12/03 00:26:16;;;;;;;47.43;26.97;;;1.60;95.90;;;1.06;87.09;98148.13;5023912;28;20450;-69
2022/12/03 00:28:44;;;;;;;47.10;25.30;;;1.60;95.20;;;1.18;87.52;98163.88;5022447;28;20510;-68
2022/12/03 00:31:12;;;;;;;43.33;25.03;;;1.60;95.80;;;1.15;87.42;98165.00;5033828;28;20507;-68
2022/12/03 00:33:40;;;;;;;48.10;27.43;;;1.60;95.40;;;1.19;87.16;98157.56;5044973;28;20484;-68
2022/12/03 00:36:08;;;;;;;46.63;26.00;;;1.60;95.30;;;1.25;86.98;98165.78;5031507;28;20457;-69
2022/12/03 00:38:35;;;;;;;44.67;25.57;;;1.60;95.40;;;1.27;86.77;98165.63;5031126;28;20466;-69
2022/12/03 00:41:03;;;;;;;44.60;24.60;;;1.60;95.10;;;1.08;87.06;98140.00;5028967;28;20464;-70
2022/12/03 00:43:30;;;;;;;41.53;23.80;;;1.60;95.00;;;1.16;87.40;98169.34;5042377;28;20527;-70
2022/12/03 00:45:57;;;;;;;44.97;25.20;;;1.60;95.20;;;1.08;87.05;98143.50;5034077;28;20486;-70
2022/12/03 00:48:26;;;;;;;46.10;27.17;;;1.60;95.10;;;1.03;87.54;98158.22;5040098;28;20753;-68
2022/12/03 00:50:53;;;;;;;40.80;23.10;;;1.60;95.60;;;1.24;87.36;98163.25;5045537;28;20833;-70
2022/12/03 00:53:20;;;;;;;47.37;25.93;;;1.60;96.20;;;1.22;87.75;98167.91;5030406;28;20480;-69
2022/12/03 00:55:49;;;;;;;44.30;25.57;;;1.60;96.50;;;1.19;87.29;98162.91;5010395;28;20451;-67
2022/12/03 00:58:16;;;;;;;46.70;26.10;;;1.60;96.40;;;1.05;88.18;98161.56;5023355;28;20457;-69
2022/12/03 01:00:44;;;;;;;44.10;25.50;;;1.60;96.10;;;1.03;87.62;98152.91;5022642;28;20464;-69
2022/12/03 01:03:11;;;;;;;48.40;26.63;;;1.60;95.60;;;1.02;87.74;98162.75;5042124;28;20457;-69
2022/12/03 01:05:40;;;;;;;46.27;25.70;;;1.50;96.10;;;0.94;88.21;98159.97;5029495;28;20926;-69
2022/12/03 01:08:07;;;;;;;46.73;25.67;;;1.50;96.00;;;0.96;88.27;98168.63;5030330;28;20456;-69
2022/12/03 01:10:34;;;;;;;58.17;28.00;;;1.50;96.50;;;1.01;88.28;98161.06;5027591;28;20453;-70
2022/12/03 01:13:01;;;;;;;48.67;25.77;;;1.50;96.70;;;1.07;88.52;98146.31;5026435;28;20474;-71
2022/12/03 01:15:28;;;;;;;48.00;26.80;;;1.50;98.20;;;1.22;87.96;98167.91;5036598;28;20451;-69
2022/12/03 01:17:56;;;;;;;47.70;26.87;;;1.60;97.60;;;1.10;87.70;98138.03;5018621;28;20447;-72
2022/12/03 01:20:23;;;;;;;46.10;25.50;;;1.60;97.30;;;1.36;87.16;98167.38;5023906;28;20465;-70
2022/12/03 01:22:52;;;;;;;46.77;26.93;;;1.60;96.50;;;1.39;87.44;98175.06;5009270;28;20453;-68
2022/12/03 01:25:19;;;;;;;42.80;26.40;;;1.70;96.50;;;1.32;87.04;98171.34;5033202;28;20464;-69
2022/12/03 01:27:46;;;;;;;47.70;26.60;;;1.70;95.60;;;1.20;87.37;98157.41;5029252;28;20499;-69
2022/12/03 01:30:14;;;;;;;49.00;27.70;;;1.70;95.80;;;1.27;87.40;98176.25;5026886;28;20848;-69
2022/12/03 01:32:40;;;;;;;51.03;26.73;;;1.70;96.30;;;1.11;88.04;98167.13;5018389;28;20983;-72
2022/12/03 01:35:08;;;;;;;50.23;26.57;;;1.70;96.20;;;1.21;87.60;98176.88;5018142;28;20465;-68
2022/12/03 01:37:36;;;;;;;46.47;27.00;;;1.60;95.80;;;1.18;87.65;98178.00;5024779;28;20453;-69
2022/12/03 01:40:08;;;;;;;41.00;25.10;;;1.60;95.70;;;1.35;86.85;98178.16;5029010;28;20558;-69
2022/12/03 01:42:39;;;;;;;44.17;26.03;;;1.70;95.60;;;1.27;87.67;98176.25;5026988;28;20482;-71
2022/12/03 01:45:11;;;;;;;48.43;26.30;;;1.60;95.90;;;1.40;87.06;98170.56;5016452;28;20457;-69
2022/12/03 01:47:40;;;;;;;48.50;26.53;;;1.70;96.70;;;1.25;87.11;98152.47;5020040;28;20454;-69
2022/12/03 01:50:15;;;;;;;50.57;26.03;;;1.70;95.90;;;1.21;87.40;98171.56;5043170;28;20454;-69
2022/12/03 01:52:44;;;;;;;47.00;26.07;;;1.70;95.60;;;1.25;87.57;98164.94;5029897;28;20473;-71
2022/12/03 01:55:18;;;;;;;49.33;28.03;;;1.70;95.80;;;1.31;87.58;98158.16;5028486;28;20446;-69
2022/12/03 01:57:48;;;;;;;46.00;26.17;;;1.70;95.90;;;1.26;87.32;98145.31;5030634;28;20536;-71
2022/12/03 02:00:19;;;;;;;41.70;24.50;;;1.70;96.90;;;1.42;86.61;98164.09;5029468;28;20463;-70
2022/12/03 02:02:48;;;;;;;46.00;26.87;;;1.70;95.80;;;1.34;86.61;98156.03;5036478;28;20452;-70
2022/12/03 02:05:20;;;;;;;48.53;26.60;;;1.70;95.30;;;1.51;86.83;98174.81;5024009;28;20525;-69
2022/12/03 02:07:47;;;;;;;44.30;24.60;;;1.80;95.60;;;1.36;86.41;98161.19;5025646;28;20523;-70
2022/12/03 02:10:20;;;;;;;41.33;26.27;;;1.80;95.00;;;1.47;86.38;98170.81;5027518;28;20467;-69
2022/12/03 02:12:50;;;;;;;45.53;25.87;;;1.80;94.70;;;1.47;86.41;98176.13;5025788;28;20465;-69
2022/12/03 02:15:18;;;;;;;51.53;27.27;;;1.80;95.00;;;1.18;86.36;98134.59;5025475;28;20462;-69
2022/12/03 02:17:45;;;;;;;43.33;25.93;;;1.70;94.60;;;1.34;86.68;98169.34;5024406;28;20481;-70
2022/12/03 02:20:14;;;;;;;45.67;26.77;;;1.70;94.90;;;0.89;86.42;98093.91;5027588;28;20450;-69
2022/12/03 02:22:50;;;;;;;47.57;27.00;;;1.70;94.80;;;1.42;86.53;98174.75;5026026;28;20561;-69
2022/12/03 02:25:23;;;;;;;46.53;25.20;;;1.70;95.30;;;1.39;86.72;98174.22;5040878;28;20519;-71
2022/12/03 02:27:51;;;;;;;43.90;24.47;;;1.70;95.30;;;1.45;86.58;98164.81;5024865;28;20509;-69
2022/12/03 02:30:22;;;;;;;45.30;26.00;;;1.80;95.30;;;1.44;86.61;98157.78;5020593;28;20458;-69
2022/12/03 02:32:51;;;;;;;43.97;25.00;;;1.80;96.10;;;1.17;86.26;98132.94;5026227;28;20563;-70
2022/12/03 02:35:20;;;;;;;47.37;27.50;;;1.80;94.40;;;1.29;86.27;98153.03;5040206;28;20466;-69
2022/12/03 02:37:52;;;;;;;41.50;26.03;;;1.80;94.60;;;1.41;86.73;98172.25;5021251;28;20958;-69
2022/12/03 02:40:24;;;;;;;46.10;25.80;;;1.70;95.00;;;1.44;86.96;98171.94;5019163;28;20472;-69
2022/12/03 02:42:55;;;;;;;46.80;26.60;;;1.70;95.80;;;1.33;86.72;98145.53;5026656;28;20659;-70
2022/12/03 02:45:25;;;;;;;44.77;25.87;;;1.80;95.30;;;1.25;87.81;98154.28;5035105;28;20460;-69
2022/12/03 02:47:57;;;;;;;41.90;24.80;;;1.70;96.10;;;1.49;86.76;98171.47;5021295;28;20472;-68
2022/12/03 02:50:29;;;;;;;50.47;26.73;;;1.80;96.90;;;1.46;87.12;98171.78;5026452;28;20493;-70
2022/12/03 02:52:58;;;;;;;44.03;24.80;;;1.80;96.80;;;1.20;86.75;98153.91;5024813;28;20481;-69
2022/12/03 02:55:28;;;;;;;48.40;27.17;;;1.80;95.00;;;1.12;87.01;98158.16;5024114;28;20562;-68
2022/12/03 02:57:56;;;;;;;43.80;24.27;;;1.70;94.40;;;1.29;87.08;98173.47;5026046;28;20458;-70
2022/12/03 03:00:24;;;;;;;46.53;26.90;;;1.70;95.60;;;1.34;87.34;98177.34;5020312;28;21016;-67
2022/12/03 03:02:51;;;;;;;49.53;26.90;;;1.70;95.70;;;1.37;87.13;98177.03;5042055;28;20462;-66
2022/12/03 03:05:22;;;;;;;47.10;26.60;;;1.70;95.40;;;1.16;87.30;98171.19;5026753;28;20456;-66
2022/12/03 03:07:51;;;;;;;45.33;25.60;;;1.70;95.00;;;1.16;87.25;98165.88;5029354;28;20849;-68
2022/12/03 03:10:22;;;;;;;43.57;25.80;;;1.70;95.30;;;1.06;88.02;98169.41;5026422;28;20939;-69
2022/12/03 03:12:53;;;;;;;51.70;29.17;;;1.60;95.70;;;1.03;87.74;98136.94;5041694;28;20475;-66
2022/12/03 03:15:22;;;;;;;42.47;25.83;;;1.70;96.40;;;1.16;87.14;98168.53;5020461;28;20462;-66
2022/12/03 03:17:49;;;;;;;46.67;25.23;;;1.70;95.90;;;1.31;87.24;98177.66;5022817;28;20515;-66
2022/12/03 03:20:17;;;;;;;49.60;26.13;;;1.70;95.90;;;1.27;87.70;98178.94;5027505;28;20471;-66
2022/12/03 03:22:45;;;;;;;46.23;25.27;;;1.70;96.20;;;1.42;87.67;98176.59;5030133;28;20523;-65
2022/12/03 03:25:17;;;;;;;56.73;27.90;;;1.70;96.30;;;1.32;87.22;98183.81;5027692;28;20492;-66
2022/12/03 03:27:45;;;;;;;44.43;27.60;;;1.70;95.60;;;1.36;86.89;98172.69;5027296;28;20449;-67
2022/12/03 03:30:15;;;;;;;45.60;25.90;;;1.70;95.50;;;1.25;86.86;98162.28;5024372;28;20501;-65
2022/12/03 03:32:43;;;;;;;47.63;26.27;;;1.70;94.90;;;1.11;87.39;98151.16;5023223;28;20977;-65
2022/12/03 03:35:13;;;;;;;42.90;25.70;;;1.70;95.30;;;1.26;87.62;98182.56;5026830;28;20454;-67
2022/12/03 03:37:42;;;;;;;45.90;27.60;;;1.70;95.70;;;1.20;87.14;98178.69;5026938;28;20460;-67
2022/12/03 03:40:10;;;;;;;49.27;26.20;;;1.70;94.80;;;1.23;87.39;98174.91;5026246;28;20456;-67
2022/12/03 03:42:39;;;;;;;47.47;27.60;;;1.70;95.40;;;1.09;87.69;98166.44;5029369;28;20809;-67
2022/12/03 03:45:08;;;;;;;45.07;26.33;;;1.70;95.00;;;1.09;87.71;98176.28;5037555;28;20897;-67
2022/12/03 03:47:37;;;;;;;45.53;25.77;;;1.60;95.50;;;1.12;87.65;98157.34;5028420;28;20859;-67
2022/12/03 03:50:06;;;;;;;43.93;25.93;;;1.70;96.00;;;1.14;87.63;98171.34;5028308;28;20483;-67
2022/12/03 03:52:34;;;;;;;46.87;25.37;;;1.60;95.30;;;1.02;87.54;98173.38;5027578;28;20812;-67
2022/12/03 03:55:01;;;;;;;42.73;25.43;;;1.60;94.80;;;1.00;87.87;98172.69;5025468;28;20469;-66
2022/12/03 03:57:29;;;;;;;42.57;24.70;;;1.60;95.60;;;1.26;87.39;98174.59;5024966;28;20473;-67
2022/12/03 03:59:58;;;;;;;45.10;25.00;;;1.60;95.80;;;1.10;87.35;98184.09;5025320;28;20449;-67
2022/12/03 04:02:27;;;;;;;49.97;28.20;;;1.60;95.50;;;1.22;87.61;98171.41;5026418;28;20971;-66
2022/12/03 04:04:56;;;;;;;44.77;25.90;;;1.60;96.60;;;1.16;87.14;98173.84;5031079;28;20522;-69
2022/12/03 04:07:23;;;;;;;42.23;25.90;;;1.60;95.10;;;1.31;86.94;98176.81;5047406;28;20458;-67
2022/12/03 04:09:50;;;;;;;42.60;25.20;;;1.70;95.60;;;1.22;87.52;98167.91;5031471;28;20531;-69
2022/12/03 04:15:04;;;;;;;41.67;26.20;;;1.70;94.30;;;1.10;86.93;98181.44;5028048;28;20965;-67
2022/12/03 04:17:31;;;;;;;39.97;24.13;;;1.60;93.90;;;0.84;86.66;98112.16;5024199;28;20580;-67
2022/12/03 04:19:59;;;;;;;44.20;26.37;;;1.70;94.20;;;1.22;86.44;98163.44;5032478;28;20969;-65
2022/12/03 04:22:41;;;;;;;40.33;23.33;;;1.70;94.40;;;1.22;86.74;98159.94;5030685;28;20476;-67
2022/12/03 04:30:40;;;;;;;44.70;26.10;;;1.70;94.80;;;1.28;86.76;98159.31;5025791;28;20771;-66
2022/12/03 04:35:53;;;;;;;42.17;26.20;;;1.70;94.30;;;1.28;86.02;98153.97;5042823;28;20481;-65
2022/12/03 04:38:20;;;;;;;43.37;24.30;;;1.70;93.70;;;1.27;86.66;98160.28;5025091;28;20473;-66
2022/12/03 04:41:03;;;;;;;42.20;26.40;;;1.70;93.80;;;1.22;86.21;98158.13;5026871;28;22298;-66
2022/12/03 04:43:33;;;;;;;48.87;28.03;;;1.70;93.60;;;1.39;85.92;98159.06;5018300;28;20461;-64
2022/12/03 04:46:01;;;;;;;40.03;25.77;;;1.70;93.80;;;1.31;86.37;98155.50;5026097;28;20477;-66
2022/12/03 04:48:28;;;;;;;43.10;25.33;;;1.70;94.00;;;1.17;87.14;98162.22;5012485;28;20458;-66
2022/12/03 04:50:56;;;;;;;45.77;24.67;;;1.70;94.50;;;1.13;87.78;98149.19;5027060;28;20460;-68
2022/12/03 04:53:24;;;;;;;41.07;26.50;;;1.70;95.90;;;1.38;86.95;98172.56;5028995;28;20550;-68
2022/12/03 04:55:51;;;;;;;49.23;30.07;;;1.70;95.70;;;1.13;87.07;98164.34;5028436;28;20468;-65
2022/12/03 04:58:18;;;;;;;43.70;25.00;;;1.70;94.70;;;1.09;87.29;98147.81;5028133;28;20468;-66
2022/12/03 05:00:46;;;;;;;43.20;26.77;;;1.70;94.80;;;1.23;87.22;98156.28;5038098;28;20469;-66
2022/12/03 05:03:13;;;;;;;45.87;27.67;;;1.70;94.90;;;1.28;86.89;98153.97;5026506;28;20921;-68
2022/12/03 05:05:40;;;;;;;43.10;24.83;;;1.70;95.20;;;1.22;86.57;98152.78;5044169;28;20554;-66
2022/12/03 05:08:08;;;;;;;44.07;27.80;;;1.70;94.30;;;1.14;86.29;98147.38;5026157;28;20465;-66
2022/12/03 05:10:36;;;;;;;43.90;25.40;;;1.70;93.60;;;1.06;86.47;98156.13;5027502;28;20457;-67
2022/12/03 05:13:03;;;;;;;42.67;24.53;;;1.70;93.30;;;1.16;87.00;98164.03;5027435;28;20472;-66
2022/12/03 05:15:30;;;;;;;40.20;24.53;;;1.60;94.30;;;1.12;87.00;98158.16;5024997;28;20943;-64
2022/12/03 05:17:57;;;;;;;45.10;24.47;;;1.70;94.20;;;1.02;86.42;98130.81;5043208;28;20447;-65
2022/12/03 05:20:41;;;;;;;45.20;26.27;;;1.70;93.80;;;1.01;87.21;98147.75;5041674;28;20449;-65
2022/12/03 05:23:13;;;;;;;41.53;25.30;;;1.60;94.10;;;1.18;87.06;98155.91;5009085;28;20535;-66
2022/12/03 05:25:40;;;;;;;41.13;24.70;;;1.60;94.80;;;1.16;86.78;98152.56;5042183;28;20519;-67
2022/12/03 05:28:07;;;;;;;45.97;26.03;;;1.60;93.90;;;1.09;86.64;98141.69;5028516;28;20452;-67
2022/12/03 05:30:35;;;;;;;40.57;26.03;;;1.60;93.40;;;1.15;86.36;98146.38;5027724;28;20922;-67
2022/12/03 05:33:02;;;;;;;41.30;24.10;;;1.70;93.60;;;1.19;86.54;98152.25;5028450;28;20452;-66
2022/12/03 05:35:29;;;;;;;42.27;24.53;;;1.60;93.90;;;1.10;86.28;98148.69;5028904;28;20453;-65
2022/12/03 05:37:56;;;;;;;45.23;26.00;;;1.60;93.40;;;0.97;86.16;98130.41;5030742;28;20457;-68
2022/12/03 05:40:25;;;;;;;37.93;24.67;;;1.60;93.30;;;1.04;87.03;98147.44;5035281;28;20503;-67
2022/12/03 05:42:55;;;;;;;42.70;25.90;;;1.60;94.10;;;1.18;86.61;98147.91;5017046;28;20928;-66
2022/12/03 05:45:25;;;;;;;41.83;25.73;;;1.60;94.20;;;1.26;86.67;98155.97;5010638;28;20460;-66
2022/12/03 05:47:52;;;;;;;40.70;25.03;;;1.70;94.00;;;1.26;85.92;98148.81;5037874;28;20932;-67
2022/12/03 05:50:19;;;;;;;45.90;25.10;;;1.70;93.70;;;1.20;85.94;98149.41;5025943;28;20480;-69
2022/12/03 05:52:47;;;;;;;42.60;25.87;;;1.70;93.40;;;1.08;86.30;98143.50;5027797;28;20545;-67
2022/12/03 05:55:15;;;;;;;42.90;26.37;;;1.60;93.10;;;1.16;86.25;98144.56;5041260;28;20441;-69
2022/12/03 05:57:44;;;;;;;38.10;23.90;;;1.60;93.30;;;1.16;86.54;98144.56;5026344;28;20941;-67
2022/12/03 06:00:18;;;;;;;42.30;24.73;;;1.70;93.50;;;1.07;86.40;98123.19;5040586;28;20465;-66
2022/12/03 06:02:45;;;;;;;40.00;24.47;;;1.70;93.90;;;1.31;86.31;98140.38;5021022;28;20511;-66
2022/12/03 06:05:14;;;;;;;44.40;24.10;;;1.70;94.20;;;1.33;86.61;98142.88;5028631;28;20949;-67
2022/12/03 06:07:41;;;;;;;38.07;24.20;;;1.60;94.70;;;1.28;85.64;98140.66;5023147;28;20451;-66
2022/12/03 06:10:13;;;;;;;41.47;24.77;;;1.70;93.70;;;1.39;85.95;98137.78;5022467;28;20489;-66
2022/12/03 06:12:41;;;;;;;41.97;24.63;;;1.70;94.10;;;1.32;85.94;98147.38;5018593;28;20524;-68
2022/12/03 06:15:14;;;;;;;41.27;25.67;;;1.80;93.40;;;1.30;86.19;98149.38;5039181;28;20955;-66
2022/12/03 06:17:41;;;;;;;46.03;25.47;;;1.70;93.60;;;1.31;86.49;98144.84;5018319;28;20470;-67
2022/12/03 06:20:13;;;;;;;37.23;25.00;;;1.70;93.90;;;1.19;86.42;98146.94;5018864;28;20460;-67
2022/12/03 06:22:41;;;;;;;43.53;26.00;;;1.70;93.70;;;1.19;86.48;98146.94;5034989;28;20458;-67
2022/12/03 06:25:09;;;;;;;42.13;25.37;;;1.70;93.70;;;1.31;86.14;98145.72;5024245;28;20464;-67
2022/12/03 06:27:37;;;;;;;41.30;25.07;;;1.70;93.90;;;1.23;86.28;98148.28;5025127;28;20474;-67
2022/12/03 06:30:07;;;;;;;42.83;25.00;;;1.70;93.40;;;1.27;86.01;98157.63;5017093;28;20488;-68
2022/12/03 06:32:36;;;;;;;44.50;25.70;;;1.80;93.20;;;1.38;85.38;98154.75;5014476;28;20993;-67
2022/12/03 06:35:03;;;;;;;39.70;23.87;;;1.80;93.20;;;1.34;85.92;98165.84;5029811;28;20471;-66
2022/12/03 06:37:30;;;;;;;43.07;26.10;;;1.80;93.10;;;1.28;85.44;98161.97;5019889;28;20473;-67
2022/12/03 06:39:58;;;;;;;40.83;26.20;;;1.80;93.60;;;1.31;85.53;98166.16;5023038;28;20456;-67
2022/12/03 06:42:25;;;;;;;44.07;27.47;;;1.80;93.10;;;1.33;85.59;98159.69;5020679;28;20464;-67
2022/12/03 06:44:52;;;;;;;43.50;26.60;;;1.80;92.60;;;1.31;85.47;98167.00;5024065;28;20536;-68
2022/12/03 06:47:19;;;;;;;39.97;24.67;;;1.80;93.00;;;1.36;85.82;98172.69;5027748;28;20466;-66
2022/12/03 06:49:47;;;;;;;38.80;25.03;;;1.80;93.10;;;1.21;86.03;98174.22;5040618;28;20445;-68
2022/12/03 06:52:16;;;;;;;46.83;27.30;;;1.80;92.90;;;1.08;86.95;98170.09;5020336;28;20452;-68
2022/12/03 06:54:43;;;;;;;43.17;25.80;;;1.70;93.20;;;1.12;86.05;98152.84;5025260;28;21492;-76
2022/12/03 06:57:10;;;;;;;42.10;25.77;;;1.70;93.20;;;1.39;85.96;98177.72;5020680;28;20456;-68
2022/12/03 06:59:38;;;;;;;41.03;26.90;;;1.80;93.10;;;1.22;85.39;98151.94;5036536;28;20469;-78
2022/12/03 07:02:05;;;;;;;39.13;24.33;;;1.80;93.00;;;1.44;85.21;98182.59;5029025;28;20456;-67
2022/12/03 07:04:33;;;;;;;44.97;32.10;;;1.80;92.90;;;1.39;85.06;98172.38;5020371;28;20533;-67
2022/12/03 07:07:16;;;;;;;38.43;25.90;;;1.80;93.10;;;1.58;85.17;98172.38;5003658;28;20925;-67
2022/12/03 07:09:43;;;;;;;38.87;24.17;;;1.90;93.20;;;1.72;84.12;98184.31;5024171;28;20459;-68
2022/12/03 07:12:11;;;;;;;39.50;25.10;;;2.00;92.40;;;1.74;83.77;98174.31;5028137;28;20453;-67
2022/12/03 07:14:38;;;;;;;39.40;23.27;;;2.00;92.10;;;1.67;84.19;98180.28;5025923;28;20531;-67
2022/12/03 07:17:05;;;;;;;38.63;25.03;;;2.00;92.20;;;1.79;83.97;98182.72;5026864;28;20474;-74
2022/12/03 07:19:32;;;;;;;37.93;24.80;;;2.10;91.90;;;1.76;83.85;98167.84;5027286;28;20553;-67
2022/12/03 07:22:00;;;;;;;39.20;24.40;;;2.10;92.00;;;1.76;84.28;98159.03;5032058;28;20450;-68
2022/12/03 07:24:28;;;;;;;38.87;23.57;;;2.10;92.50;;;1.86;83.49;98175.75;5024381;28;20925;-68
2022/12/03 07:26:56;;;;;;;41.63;24.47;;;2.10;92.20;;;1.79;83.46;98175.53;5029164;28;20859;-68
2022/12/03 07:29:23;;;;;;;35.17;22.47;;;2.10;91.90;;;1.83;83.89;98179.59;5042453;28;20784;-67
2022/12/03 07:31:50;;;;;;;39.03;23.77;;;2.10;92.10;;;1.86;83.40;98174.94;5025992;28;20844;-67
2022/12/03 07:34:17;;;;;;;38.00;23.70;;;2.10;91.40;;;1.32;83.57;98115.44;5019353;28;21017;-67
2022/12/03 07:36:45;;;;;;;35.77;22.33;;;2.10;91.50;;;1.73;83.44;98178.84;5024918;28;20462;-68
2022/12/03 07:39:13;;;;;;;36.80;22.80;;;2.10;91.20;;;1.78;83.53;98173.88;5028127;28;20450;-68
2022/12/03 07:41:44;;;;;;;38.10;23.60;;;2.10;91.60;;;1.87;83.97;98171.28;5043428;28;20535;-67
2022/12/03 07:44:11;;;;;;;35.70;21.73;;;2.10;92.10;;;1.76;83.25;98175.03;5037972;28;20478;-68
2022/12/03 07:46:39;;;;;;;37.43;23.30;;;2.10;91.80;;;1.39;83.49;98100.50;5032376;28;20494;-68
2022/12/03 07:49:06;;;;;;;37.97;21.60;;;2.10;91.60;;;1.84;84.18;98178.59;5031879;28;20438;-66
2022/12/03 07:51:33;;;;;;;34.30;24.07;;;2.10;92.40;;;1.90;83.38;98165.63;5022022;28;20462;-68
2022/12/03 07:54:00;;;;;;;32.07;22.30;;;2.20;91.80;;;1.64;83.55;98150.44;5022163;28;20488;-69
2022/12/03 07:56:27;;;;;;;32.90;21.30;;;2.10;91.50;;;1.84;84.05;98180.41;5028879;28;20448;-68
2022/12/03 07:58:56;;;;;;;39.10;23.80;;;2.20;91.60;;;1.87;83.49;98171.28;5027132;28;20464;-68
2022/12/03 08:01:23;;;;;;;38.47;23.10;;;2.20;91.40;;;1.79;83.34;98156.06;5019825;28;20946;-68
2022/12/03 08:03:51;;;;;;;37.47;24.00;;;2.20;91.20;;;1.70;83.49;98160.50;5027193;28;20519;-67
2022/12/03 08:06:18;;;;;;;38.97;24.37;;;2.20;91.20;;;1.78;83.75;98159.72;5015858;28;20502;-67
2022/12/03 08:08:46;;;;;;;37.57;23.57;;;2.10;91.70;;;1.86;83.29;98165.09;5018823;28;20468;-67
2022/12/03 08:11:14;;;;;;;32.10;20.87;;;2.20;91.50;;;1.73;83.68;98148.69;5027739;28;20452;-66
2022/12/03 08:13:41;;;;;;;38.60;24.60;;;2.20;91.60;;;1.89;83.57;98175.44;5028319;28;20508;-69
2022/12/03 08:16:16;;;;;;;35.57;22.83;;;2.20;91.40;;;1.78;83.19;98165.06;5020835;28;20453;-68
2022/12/03 08:18:44;;;;;;;39.03;24.17;;;2.20;91.30;;;1.87;83.30;98161.44;5033834;28;20544;-68
2022/12/03 08:21:14;;;;;;;38.97;24.20;;;2.20;91.70;;;1.76;83.53;98159.03;5038550;28;20462;-68
2022/12/03 08:23:41;;;;;;;34.40;23.10;;;2.20;91.40;;;1.84;83.47;98159.94;5021284;28;20549;-67
2022/12/03 08:26:20;;;;;;;36.03;22.30;;;2.20;91.40;;;1.83;83.17;98154.75;5024399;28;20598;-67
2022/12/03 08:28:48;;;;;;;36.30;22.20;;;2.20;91.30;;;1.98;83.19;98163.03;5020612;28;21070;-65
2022/12/03 08:31:19;;;;;;;37.83;22.53;;;2.30;91.40;;;2.00;82.78;98155.72;5026383;28;20461;-66
2022/12/03 08:33:49;;;;;;;39.57;22.93;;;2.30;91.30;;;1.98;82.73;98144.38;5024831;28;20457;-66
2022/12/03 08:36:21;;;;;;;38.03;22.83;;;2.30;91.10;;;1.94;82.90;98149.16;5025086;28;20475;-67
2022/12/03 08:38:52;;;;;;;39.83;24.43;;;2.30;90.90;;;1.87;83.23;98145.44;5027872;28;20469;-71
2022/12/03 08:44:05;;;;;;;33.83;23.77;;;2.30;90.70;;;1.20;84.11;98072.22;5015821;28;21203;-66
2022/12/03 08:46:34;;;;;;;37.13;23.77;;;2.20;90.90;;;1.81;83.69;98151.41;5026282;28;20485;-66
2022/12/03 08:49:01;;;;;;;36.40;23.87;;;2.20;91.30;;;1.74;84.04;98145.00;5023062;28;20446;-66
2022/12/03 08:51:28;;;;;;;39.93;23.50;;;2.20;90.90;;;1.72;84.28;98141.69;5025686;28;20474;-65
2022/12/03 08:54:07;;;;;;;33.87;23.60;;;2.20;91.20;;;1.79;84.56;98129.41;5027031;28;20492;-66
2022/12/03 08:56:37;;;;;;;38.57;24.30;;;2.20;91.60;;;1.96;83.83;98136.53;5022519;28;20543;-67
2022/12/03 08:59:25;;;;;;;35.97;22.17;;;2.30;91.70;;;2.05;82.55;98139.25;5022260;28;20465;-65
2022/12/03 09:01:55;;;;;;;36.50;22.67;;;2.40;90.90;;;2.16;82.09;98146.94;5041250;28;20485;-67
2022/12/03 09:04:27;;;;;;;39.77;24.50;;;2.40;90.70;;;2.17;82.53;98140.63;5025234;28;20472;-68
2022/12/03 09:06:58;;;;;;;34.97;22.00;;;2.50;90.90;;;2.03;82.81;98146.53;5036863;28;20449;-70
2022/12/03 09:09:26;;;;;;;36.30;22.90;;;2.40;90.30;;;1.94;82.64;98119.84;5040929;28;20453;-66
2022/12/03 09:11:54;;;;;;;37.53;22.60;;;2.50;90.20;;;2.16;81.91;98159.47;5041994;28;20540;-68
2022/12/03 09:14:22;;;;;;;36.27;22.60;;;2.50;89.50;;;2.28;81.88;98154.69;5021463;28;20500;-66
2022/12/03 09:16:50;;;;;;;36.30;23.10;;;2.60;90.20;;;2.04;82.17;98151.72;5026399;28;20480;-68
2022/12/03 09:19:19;;;;;;;31.03;20.40;;;2.50;89.40;;;2.17;81.98;98145.97;5023064;28;20459;-69
2022/12/03 09:21:46;;;;;;;39.07;23.50;;;2.50;90.00;;;2.28;81.72;98154.69;5027321;28;20459;-67
2022/12/03 09:24:14;;;;;;;32.93;21.27;;;2.60;90.40;;;1.79;82.06;98089.47;5034132;28;20447;-69
2022/12/03 09:26:41;;;;;;;40.00;22.73;;;2.60;89.70;;;2.38;80.73;98158.06;5038762;28;20453;-66
2022/12/03 09:29:08;;;;;;;36.43;23.87;;;2.70;89.10;;;2.23;82.05;98168.47;5025396;28;20541;-67
2022/12/03 09:31:35;;;;;;;38.17;22.80;;;2.70;89.60;;;2.37;82.22;98161.75;5023454;28;20522;-68
2022/12/03 09:34:03;;;;;;;31.63;21.57;;;2.70;90.30;;;2.51;81.01;98150.47;5016415;28;20466;-67
2022/12/03 09:36:32;;;;;;;33.50;21.57;;;2.80;89.60;;;2.45;81.99;98153.75;5023277;28;20473;-68
2022/12/03 09:38:59;;;;;;;34.50;20.87;;;2.80;89.30;;;2.43;81.57;98153.09;5040975;28;20850;-65
2022/12/03 09:41:27;;;;;;;29.57;20.00;;;2.80;89.60;;;2.40;80.75;98156.09;5038077;28;20464;-71
2022/12/03 09:43:55;;;;;;;31.57;21.13;;;2.80;88.00;;;2.43;81.25;98153.09;5022101;28;20449;-66
2022/12/03 09:46:23;;;;;;;28.70;21.23;;;2.80;88.20;;;2.46;81.27;98154.59;5032100;28;20536;-70
2022/12/03 09:48:50;;;;;;;36.53;22.97;;;2.80;88.40;;;2.44;79.99;98146.75;5023270;28;20468;-67
2022/12/03 09:51:18;;;;;;;31.27;21.03;;;2.80;87.30;;;2.55;80.84;98146.47;5023671;28;20461;-67
2022/12/03 09:53:48;;;;;;;31.93;20.63;;;2.80;88.00;;;2.40;81.45;98150.75;5022411;28;20458;-67
2022/12/03 09:56:21;;;;;;;31.73;22.77;;;2.80;88.60;;;2.44;80.72;98157.44;5021540;28;20477;-68
2022/12/03 09:58:48;;;;;;;30.73;20.33;;;2.80;88.50;;;2.57;80.84;98150.81;5022279;28;20475;-67
2022/12/03 10:01:16;;;;;;;35.20;21.77;;;2.80;88.90;;;2.69;80.17;98149.53;5040693;28;20474;-68
2022/12/03 10:03:47;;;;;;;32.03;21.17;;;2.90;88.00;;;2.31;80.65;98154.34;5023150;28;20793;-66
2022/12/03 10:06:19;;;;;;;33.67;21.30;;;2.80;86.60;;;2.26;80.56;98152.16;5026886;28;20464;-67
2022/12/03 10:08:50;;;;;;;29.47;21.57;;;2.80;86.70;;;2.16;81.21;98154.94;5023821;28;20519;-66
2022/12/03 10:11:20;;;;;;;33.67;20.37;;;2.70;87.00;;;2.09;81.24;98097.94;5018695;28;20504;-66
2022/12/03 10:13:48;;;;;;;32.37;21.67;;;2.80;88.60;;;2.61;80.39;98141.47;5033622;28;20863;-70
2022/12/03 10:16:17;;;;;;;37.43;21.83;;;2.90;88.00;;;2.56;80.10;98139.28;5023184;28;20492;-65
2022/12/03 10:18:48;;;;;;;38.37;21.40;;;2.90;87.70;;;2.46;79.74;98102.09;5020553;28;20449;-67
2022/12/03 10:21:21;;;;;;;32.50;21.70;;;3.00;87.20;;;2.62;80.28;98130.66;5030161;28;20450;-66
2022/12/03 10:23:50;;;;;;;35.20;20.77;;;3.00;87.30;;;2.66;80.05;98113.31;5045454;28;21010;-69
2022/12/03 10:26:18;;;;;;;30.67;20.10;;;3.00;86.50;;;2.64;79.13;98103.81;5030474;28;20467;-68
2022/12/03 10:28:46;;;;;;;34.13;21.63;;;3.00;86.00;;;2.73;79.66;98094.00;5044851;28;20445;-67
2022/12/03 10:31:15;;;;;;;32.73;20.20;;;3.00;86.60;;;2.62;79.80;98089.78;5024386;28;20494;-67
2022/12/03 10:33:46;;;;;;;31.73;18.80;;;3.10;86.00;;;2.75;78.70;98084.81;5043052;28;20460;-68
2022/12/03 10:36:20;;;;;;;33.53;21.90;;;3.10;85.10;;;2.83;78.56;98098.19;5042954;28;20481;-67
2022/12/03 10:39:11;;;;;;;31.10;19.23;;;3.10;85.10;;;2.70;78.64;98097.84;5027541;28;20457;-68
2022/12/03 10:41:39;;;;;;;29.57;19.10;;;3.10;84.90;;;2.60;79.15;98092.66;5024114;28;20476;-68